createdAt,value
2019-03-24T00:01:06.103Z,27.67
2019-03-24T00:03:36.914Z,27.60
2019-03-24T00:06:07.736Z,26.73
2019-03-24T00:08:38.537Z,26.73
2019-03-24T00:11:09.477Z,27.20
2019-03-24T00:13:40.199Z,26.00
2019-03-24T00:16:11.008Z,28.53
2019-03-24T00:18:41.786Z,27.17
2019-03-24T00:21:12.200Z,26.47
2019-03-24T00:23:43.110Z,25.03
2019-03-24T00:26:14.472Z,27.30
2019-03-24T00:28:45.326Z,25.90
2019-03-24T00:31:16.222Z,25.53
2019-03-24T00:33:46.995Z,24.63
2019-03-24T00:36:18.318Z,24.83
2019-03-24T00:38:49.215Z,23.37
2019-03-24T00:41:19.985Z,24.10
2019-03-24T00:43:50.889Z,22.73
2019-03-24T00:46:22.326Z,22.83
2019-03-24T00:48:53.211Z,23.70
2019-03-24T00:51:24.072Z,22.50
2019-03-24T00:53:54.873Z,21.50
2019-03-24T00:56:25.612Z,22.33
2019-03-24T00:58:57.074Z,22.60
2019-03-24T01:01:27.894Z,22.10
2019-03-24T01:03:58.428Z,20.73
2019-03-24T01:06:29.237Z,20.93
2019-03-24T01:09:00.027Z,19.77
2019-03-24T01:11:30.607Z,20.00
2019-03-24T01:14:01.501Z,19.20
2019-03-24T01:16:32.415Z,18.77
2019-03-24T01:19:04.791Z,18.13
2019-03-24T01:21:38.321Z,17.10
2019-03-24T01:24:09.223Z,17.03
2019-03-24T01:26:40.065Z,15.90
2019-03-24T01:29:15.118Z,16.17
2019-03-24T01:31:45.931Z,15.70
2019-03-24T01:34:16.440Z,15.20
2019-03-24T01:36:47.425Z,15.50
2019-03-24T01:39:18.476Z,15.37
2019-03-24T01:41:50.817Z,15.73
2019-03-24T01:44:21.753Z,14.97
2019-03-24T01:46:52.479Z,15.23
2019-03-24T01:49:25.981Z,15.27
2019-03-24T01:51:59.587Z,13.53
2019-03-24T01:54:30.425Z,13.90
2019-03-24T01:57:01.353Z,14.10
2019-03-24T01:59:32.229Z,13.97
2019-03-24T02:02:03.105Z,15.43
2019-03-24T02:04:36.866Z,15.17
2019-03-24T02:07:07.695Z,15.37
2019-03-24T02:09:38.622Z,15.47
2019-03-24T02:12:10.916Z,15.77
2019-03-24T02:14:41.838Z,16.33
2019-03-24T02:17:13.295Z,17.10
2019-03-24T02:19:44.241Z,15.53
2019-03-24T02:22:15.171Z,14.97
2019-03-24T04:41:55.176Z,11.37
2019-03-24T04:44:25.980Z,11.07
2019-03-24T04:46:56.710Z,11.77
2019-03-24T04:49:27.495Z,12.27
2019-03-24T04:51:58.260Z,11.90
2019-03-24T04:54:29.054Z,12.60
2019-03-24T04:57:00.004Z,12.00
2019-03-24T04:59:30.944Z,11.47
2019-03-24T05:02:01.640Z,12.40
2019-03-24T05:04:32.374Z,12.87
2019-03-24T05:07:03.530Z,11.50
2019-03-24T05:09:34.546Z,11.40
2019-03-24T05:12:05.394Z,11.03
2019-03-24T05:14:36.227Z,10.70
2019-03-24T05:17:07.074Z,11.57
2019-03-24T05:19:37.890Z,11.17
2019-03-24T05:22:08.632Z,11.07
2019-03-24T05:24:39.090Z,11.43
2019-03-24T05:27:09.803Z,11.37
2019-03-24T05:29:40.519Z,11.27
2019-03-24T05:32:10.924Z,11.13
2019-03-24T05:34:41.684Z,10.50
2019-03-24T05:37:12.522Z,10.40
2019-03-24T05:39:43.267Z,10.90
2019-03-24T05:42:14.090Z,10.60
2019-03-24T05:44:44.830Z,10.17
2019-03-24T05:47:15.654Z,10.40
2019-03-24T05:49:46.753Z,10.77
2019-03-24T05:52:17.544Z,9.60
2019-03-24T05:54:48.390Z,10.03
2019-03-24T05:57:19.209Z,10.27
2019-03-24T05:59:49.638Z,9.47
2019-03-24T06:02:20.516Z,9.47
2019-03-24T06:04:51.216Z,8.97
2019-03-24T06:07:21.933Z,9.67
2019-03-24T06:09:52.780Z,9.57
2019-03-24T06:12:23.613Z,8.30
2019-03-24T06:14:54.562Z,9.13
2019-03-24T06:17:25.438Z,7.83
2019-03-24T06:19:56.244Z,8.83
2019-03-24T06:22:27.066Z,10.20
2019-03-24T06:24:57.820Z,8.53
2019-03-24T06:27:29.406Z,8.93
2019-03-24T06:29:59.787Z,7.97
2019-03-24T06:32:30.648Z,8.60
2019-03-24T06:35:01.582Z,7.60
2019-03-24T06:37:32.408Z,7.40
2019-03-24T06:40:03.269Z,6.70
2019-03-24T06:42:34.192Z,6.63
2019-03-24T06:45:06.515Z,11.57
2019-03-24T06:47:37.402Z,8.90
2019-03-24T06:50:12.038Z,7.43
2019-03-24T06:52:42.601Z,7.23
2019-03-24T06:55:13.167Z,7.20
2019-03-24T06:57:44.000Z,6.73
2019-03-24T07:00:16.132Z,6.73
2019-03-24T07:02:46.511Z,5.97
2019-03-24T07:05:17.187Z,4.97
2019-03-24T07:07:47.972Z,5.67
2019-03-24T07:10:19.116Z,4.93
2019-03-24T07:12:51.480Z,6.20
2019-03-24T07:15:22.725Z,5.73
2019-03-24T07:17:53.804Z,5.17
2019-03-24T07:20:26.242Z,5.10
2019-03-24T07:22:57.591Z,4.60
2019-03-24T07:25:29.586Z,4.47
2019-03-24T07:28:00.281Z,4.87
2019-03-24T07:30:32.302Z,5.90
2019-03-24T07:33:03.605Z,5.60
2019-03-24T07:35:35.922Z,7.23
2019-03-24T07:38:07.842Z,5.20
2019-03-24T07:40:40.224Z,5.63
2019-03-24T07:43:11.153Z,5.00
2019-03-24T07:45:41.625Z,5.47
2019-03-24T07:48:18.954Z,5.20
2019-03-24T07:50:46.423Z,5.97
2019-03-24T07:53:18.766Z,4.83
2019-03-24T07:55:49.560Z,4.60
2019-03-24T07:58:20.589Z,4.80
2019-03-24T08:00:51.409Z,4.27
2019-03-24T08:03:22.270Z,5.27
2019-03-24T08:05:54.391Z,5.83
2019-03-24T08:08:27.657Z,6.27
2019-03-24T08:10:57.743Z,6.33
2019-03-24T08:13:28.569Z,4.97
2019-03-24T08:16:02.342Z,5.07
2019-03-24T08:18:35.470Z,5.13
2019-03-24T08:21:06.406Z,4.77
2019-03-24T08:23:37.300Z,5.03
2019-03-24T08:26:10.731Z,4.73
2019-03-24T08:28:41.561Z,5.13
2019-03-24T08:31:14.811Z,5.50
2019-03-24T08:33:44.885Z,4.67
2019-03-24T08:36:15.746Z,4.63
2019-03-24T08:38:46.787Z,4.60
2019-03-24T08:41:17.607Z,4.27
2019-03-24T08:43:48.445Z,4.20
2019-03-24T08:46:19.165Z,4.27
2019-03-24T08:48:49.966Z,5.10
2019-03-24T08:51:20.961Z,4.70
2019-03-24T08:53:51.809Z,4.03
2019-03-24T08:56:22.504Z,5.43
2019-03-24T08:58:53.520Z,4.60
2019-03-24T09:01:24.423Z,4.57
2019-03-24T09:03:55.329Z,4.07
2019-03-24T09:06:26.113Z,4.13
2019-03-24T09:08:57.033Z,4.90
2019-03-24T09:11:31.461Z,5.53
2019-03-24T09:14:00.411Z,5.33
2019-03-24T09:16:31.251Z,4.70
2019-03-24T09:19:01.708Z,4.53
2019-03-24T09:21:32.639Z,4.47
2019-03-24T09:24:03.555Z,4.40
2019-03-24T09:26:34.115Z,4.50
2019-03-24T09:29:05.048Z,4.10
2019-03-24T09:31:35.544Z,4.40
2019-03-24T09:34:06.126Z,4.53
2019-03-24T09:36:36.940Z,4.03
2019-03-24T09:39:07.784Z,4.53
2019-03-24T09:41:38.721Z,5.30
2019-03-24T09:44:09.557Z,4.43
2019-03-24T09:46:40.363Z,4.63
2019-03-24T09:49:11.129Z,4.33
2019-03-24T09:51:42.097Z,4.40
2019-03-24T09:54:13.018Z,4.47
2019-03-24T09:56:43.580Z,4.50
2019-03-24T09:59:14.487Z,3.73
2019-03-24T10:01:45.426Z,3.07
2019-03-24T10:04:16.319Z,3.43
2019-03-24T10:06:47.353Z,3.90
2019-03-24T10:09:19.625Z,3.80
2019-03-24T10:11:52.318Z,3.37
2019-03-24T10:14:23.356Z,3.23
2019-03-24T10:16:55.835Z,3.80
2019-03-24T10:19:26.903Z,3.80
2019-03-24T10:21:59.688Z,3.93
2019-03-24T10:24:30.511Z,4.40
2019-03-24T10:27:01.394Z,3.20
2019-03-24T10:29:32.319Z,3.93
2019-03-24T10:32:02.934Z,3.30
2019-03-24T10:34:33.802Z,2.80
2019-03-24T10:37:04.673Z,2.87
2019-03-24T10:39:35.516Z,3.30
2019-03-24T10:42:06.365Z,3.30
2019-03-24T10:44:37.224Z,3.07
2019-03-24T10:47:08.147Z,3.77
2019-03-24T10:49:39.585Z,3.20
2019-03-24T10:52:10.619Z,2.83
2019-03-24T10:54:41.472Z,3.00
2019-03-24T10:57:12.204Z,2.90
2019-03-24T10:59:43.059Z,3.10
2019-03-24T11:02:13.682Z,3.47
2019-03-24T11:04:44.535Z,2.50
2019-03-24T11:07:15.365Z,3.00
2019-03-24T11:09:46.308Z,3.30
2019-03-24T11:12:21.332Z,2.87
2019-03-24T11:14:52.190Z,3.27
2019-03-24T11:17:23.050Z,2.60
2019-03-24T11:19:54.151Z,2.63
2019-03-24T11:22:24.980Z,2.70
2019-03-24T11:24:55.817Z,2.50
2019-03-24T11:27:26.667Z,2.80
2019-03-24T11:30:00.333Z,2.80
2019-03-24T11:32:31.311Z,2.17
2019-03-24T11:35:02.341Z,2.87
2019-03-24T11:37:33.174Z,2.90
2019-03-24T11:40:05.491Z,2.50
2019-03-24T11:42:36.432Z,2.93
2019-03-24T11:45:08.173Z,2.67
2019-03-24T11:47:39.056Z,2.93
2019-03-24T11:50:10.579Z,2.73
2019-03-24T11:52:41.809Z,2.63
2019-03-24T11:55:13.393Z,2.80
2019-03-24T11:57:44.366Z,2.23
2019-03-24T12:00:17.592Z,2.30
2019-03-24T12:02:48.400Z,2.40
2019-03-24T12:05:19.227Z,2.30
2019-03-24T12:07:50.211Z,2.60
2019-03-24T12:10:20.906Z,2.63
2019-03-24T12:12:51.377Z,2.87
2019-03-24T12:15:22.342Z,2.73
2019-03-24T12:17:53.449Z,2.93
2019-03-24T12:20:25.941Z,2.53
2019-03-24T12:22:56.751Z,3.10
2019-03-24T12:25:27.557Z,2.73
2019-03-24T12:28:00.105Z,2.70
2019-03-24T12:30:30.865Z,2.80
2019-03-24T12:33:03.254Z,2.47
2019-03-24T12:35:34.096Z,2.70
2019-03-24T12:38:05.218Z,2.70
2019-03-24T12:40:36.084Z,2.20
2019-03-24T12:43:06.932Z,2.67
2019-03-24T12:45:38.429Z,2.40
2019-03-24T12:48:08.954Z,2.60
2019-03-24T12:50:42.118Z,2.60
2019-03-24T12:53:14.121Z,2.40
2019-03-24T12:55:46.431Z,3.00
2019-03-24T12:58:19.986Z,2.50
2019-03-24T13:00:53.487Z,2.53
2019-03-24T13:03:24.341Z,2.60
2019-03-24T13:05:55.099Z,2.20
2019-03-24T13:08:25.940Z,2.33
2019-03-24T13:10:56.768Z,2.20
2019-03-24T13:13:27.238Z,2.60
2019-03-24T13:15:58.043Z,2.23
2019-03-24T13:18:28.999Z,3.70
2019-03-24T13:20:59.906Z,2.90
2019-03-24T13:23:30.623Z,2.30
2019-03-24T13:26:01.472Z,3.03
2019-03-24T13:28:32.450Z,2.23
2019-03-24T13:31:04.786Z,4.53
2019-03-24T13:33:35.629Z,2.80
2019-03-24T13:36:08.489Z,2.37
2019-03-24T13:38:42.399Z,2.80
2019-03-24T13:41:13.133Z,2.40
2019-03-24T13:43:43.980Z,2.73
2019-03-24T13:46:15.449Z,2.07
2019-03-24T13:48:46.294Z,2.13
2019-03-24T13:51:16.740Z,2.07
2019-03-24T13:53:47.139Z,2.40
2019-03-24T13:56:18.055Z,2.03
2019-03-24T13:58:48.815Z,2.40
2019-03-24T14:01:20.279Z,2.33
2019-03-24T14:03:52.910Z,2.30
2019-03-24T14:06:24.181Z,2.57
2019-03-24T14:08:55.135Z,2.60
2019-03-24T14:11:25.770Z,2.70
2019-03-24T14:13:56.621Z,2.23
2019-03-24T14:16:27.523Z,2.07
2019-03-24T14:18:58.260Z,2.70
2019-03-24T14:21:28.977Z,2.57
2019-03-24T14:23:59.795Z,2.47
2019-03-24T14:26:30.651Z,2.50
2019-03-24T14:29:01.109Z,2.70
2019-03-24T14:31:32.017Z,2.80
2019-03-24T14:34:02.856Z,2.27
2019-03-24T14:36:33.707Z,2.60
2019-03-24T14:39:05.570Z,3.07
2019-03-24T14:41:36.573Z,2.57
2019-03-24T14:44:07.451Z,2.70
2019-03-24T14:46:38.370Z,2.43
2019-03-24T14:49:09.065Z,2.63
2019-03-24T14:51:39.881Z,2.40
2019-03-24T14:54:10.689Z,2.33
2019-03-24T14:56:41.428Z,3.17
2019-03-24T14:59:12.369Z,2.33
2019-03-24T15:01:43.067Z,2.47
2019-03-24T15:04:17.026Z,2.50
2019-03-24T15:06:47.866Z,2.63
2019-03-24T15:09:18.938Z,2.57
2019-03-24T15:11:49.510Z,2.33
2019-03-24T15:14:20.383Z,2.67
2019-03-24T15:16:51.181Z,2.20
2019-03-24T15:19:22.170Z,2.50
2019-03-24T15:21:52.948Z,2.40
2019-03-24T15:24:23.762Z,2.27
2019-03-24T15:26:56.179Z,2.40
2019-03-24T15:29:26.989Z,2.40
2019-03-24T15:31:57.831Z,2.50
2019-03-24T15:34:28.688Z,2.33
2019-03-24T15:36:59.671Z,2.73
2019-03-24T15:39:30.477Z,2.53
2019-03-24T15:42:01.307Z,2.23
2019-03-24T15:44:32.146Z,2.50
2019-03-24T15:47:03.089Z,2.27
2019-03-24T15:49:33.794Z,2.23
2019-03-24T15:52:04.203Z,3.10
2019-03-24T15:54:34.962Z,2.70
2019-03-24T15:57:05.890Z,2.33
2019-03-24T15:59:37.670Z,3.17
2019-03-24T16:02:09.409Z,2.70
2019-03-24T16:04:40.314Z,2.30
2019-03-24T16:07:11.200Z,2.27
2019-03-24T16:09:42.183Z,2.30
2019-03-24T16:12:14.722Z,2.30
2019-03-24T16:14:45.557Z,2.70
2019-03-24T16:17:17.937Z,2.80
2019-03-24T16:19:50.286Z,2.97
2019-03-24T16:22:21.153Z,2.60
2019-03-24T16:24:54.395Z,2.63
2019-03-24T16:27:25.185Z,2.53
2019-03-24T16:29:56.111Z,2.17
2019-03-24T16:32:28.475Z,2.57
2019-03-24T16:34:59.208Z,2.70
2019-03-24T16:37:29.935Z,2.50
2019-03-24T16:40:02.409Z,3.10
2019-03-24T16:42:33.256Z,2.57
2019-03-24T16:45:05.123Z,2.50
2019-03-24T16:47:35.872Z,2.53
2019-03-24T16:50:07.915Z,2.70
2019-03-24T16:52:38.872Z,2.47
2019-03-24T16:55:33.222Z,2.80
2019-03-24T16:58:10.543Z,2.77
2019-03-24T17:00:41.388Z,2.50
2019-03-24T17:03:12.229Z,2.40
2019-03-24T17:05:43.046Z,2.63
2019-03-24T17:08:13.889Z,3.23
2019-03-24T17:10:46.589Z,3.03
2019-03-24T17:13:17.370Z,2.50
2019-03-24T17:15:47.847Z,3.30
2019-03-24T17:18:18.662Z,2.67
2019-03-24T17:20:49.190Z,2.33
2019-03-24T17:23:19.958Z,2.50
2019-03-24T17:25:50.793Z,2.50
2019-03-24T17:28:21.712Z,2.50
2019-03-24T17:30:52.512Z,2.77
2019-03-24T17:33:23.486Z,3.20
2019-03-24T17:35:54.310Z,2.70
2019-03-24T17:38:25.163Z,2.63
2019-03-24T17:40:56.012Z,2.60
2019-03-24T17:43:27.002Z,2.60
2019-03-24T17:45:57.936Z,2.77
2019-03-24T17:48:28.675Z,2.90
2019-03-24T17:50:59.442Z,3.07
2019-03-24T17:53:30.343Z,2.97
2019-03-24T17:56:04.474Z,3.47
2019-03-24T17:58:35.333Z,3.10
2019-03-24T18:01:09.353Z,5.27
2019-03-24T18:03:40.199Z,5.33
2019-03-24T18:06:12.750Z,5.10
2019-03-24T18:08:43.612Z,4.80
2019-03-24T18:11:14.436Z,4.60
2019-03-24T18:13:45.260Z,4.30
2019-03-24T18:16:17.402Z,5.53
2019-03-24T18:18:48.376Z,5.90
2019-03-24T18:21:27.332Z,6.50
2019-03-24T18:23:59.695Z,5.20
2019-03-24T18:26:32.951Z,5.37
2019-03-24T18:29:06.496Z,4.43
2019-03-24T18:31:39.859Z,4.57
2019-03-24T18:34:10.755Z,4.63
2019-03-24T18:36:41.653Z,4.23
2019-03-24T18:39:12.182Z,4.27
2019-03-24T18:41:43.110Z,4.60
2019-03-24T18:44:13.963Z,4.80
2019-03-24T18:46:44.576Z,4.43
2019-03-24T18:49:15.320Z,4.13
2019-03-24T18:51:46.377Z,4.27
2019-03-24T18:54:17.176Z,4.53
2019-03-24T18:56:48.092Z,4.60
2019-03-24T18:59:20.635Z,4.00
2019-03-24T19:01:51.546Z,4.20
2019-03-24T19:04:23.813Z,3.63
2019-03-24T19:06:54.651Z,4.20
2019-03-24T19:09:25.507Z,4.83
2019-03-24T19:11:56.519Z,5.27
2019-03-24T19:14:27.477Z,3.97
2019-03-24T19:16:58.940Z,4.27
2019-03-24T19:19:29.925Z,4.40
2019-03-24T19:22:00.861Z,4.70
2019-03-24T19:24:31.722Z,4.33
2019-03-24T19:27:02.889Z,5.00
2019-03-24T19:29:33.718Z,4.53
2019-03-24T19:32:06.174Z,4.73
2019-03-24T19:34:38.491Z,4.87
2019-03-24T19:37:09.401Z,4.80
2019-03-24T19:39:41.715Z,5.10
2019-03-24T19:42:18.614Z,5.40
2019-03-24T19:44:47.911Z,5.63
2019-03-24T19:47:18.929Z,5.20
2019-03-24T19:49:56.165Z,5.70
2019-03-24T19:52:28.722Z,5.87
2019-03-24T19:55:01.130Z,6.23
2019-03-24T19:57:32.072Z,6.37
2019-03-24T20:00:06.170Z,6.30
2019-03-24T20:02:37.926Z,7.57
2019-03-24T20:05:08.863Z,10.13
2019-03-24T20:07:47.579Z,7.47
2019-03-24T20:10:12.469Z,6.43
2019-03-24T20:12:46.311Z,6.57
2019-03-24T20:15:17.509Z,6.20
2019-03-24T20:17:48.379Z,5.90
2019-03-24T20:20:18.972Z,5.93
2019-03-24T20:22:56.515Z,6.20
2019-03-24T20:25:25.556Z,6.30
2019-03-24T20:27:56.771Z,7.07
2019-03-24T20:30:27.696Z,6.77
2019-03-24T20:32:58.640Z,6.00
2019-03-24T20:35:34.391Z,6.17
2019-03-24T20:38:06.643Z,5.43
2019-03-24T20:40:37.495Z,4.97
2019-03-24T20:43:08.396Z,4.70
2019-03-24T20:45:39.312Z,5.50
2019-03-24T20:48:10.159Z,5.17
2019-03-24T20:50:41.015Z,5.23
2019-03-24T20:53:18.155Z,4.83
2019-03-24T20:55:46.983Z,4.90
2019-03-24T20:58:17.991Z,5.13
2019-03-24T21:00:50.624Z,6.23
2019-03-24T21:03:21.480Z,5.50
2019-03-24T21:05:52.043Z,5.30
2019-03-24T21:08:23.118Z,5.20
2019-03-24T21:10:54.015Z,4.77
2019-03-24T21:13:24.925Z,4.60
2019-03-24T21:15:55.829Z,4.97
2019-03-24T21:18:26.911Z,4.57
2019-03-24T21:20:57.703Z,4.37
2019-03-24T21:23:29.770Z,4.50
2019-03-24T21:26:03.804Z,4.30
2019-03-24T21:28:34.644Z,4.33
2019-03-24T21:31:05.605Z,4.70
2019-03-24T21:33:36.528Z,4.90
2019-03-24T21:36:08.661Z,4.80
2019-03-24T21:38:39.675Z,4.53
2019-03-24T21:41:10.462Z,4.40
2019-03-24T21:43:42.365Z,4.50
2019-03-24T21:46:13.204Z,4.93
2019-03-24T21:48:44.207Z,4.93
2019-03-24T21:51:15.147Z,4.57
2019-03-24T21:53:45.985Z,4.47
2019-03-24T21:56:25.566Z,5.07
2019-03-24T21:58:56.445Z,4.33
2019-03-24T22:01:27.314Z,5.20
2019-03-24T22:04:00.174Z,4.63
2019-03-24T22:06:31.075Z,4.87
2019-03-24T22:09:01.914Z,5.37
2019-03-24T22:11:36.872Z,4.43
2019-03-24T22:14:09.355Z,4.80
2019-03-24T22:16:41.485Z,4.50
2019-03-24T22:19:14.068Z,4.40
2019-03-24T22:21:46.357Z,4.43
2019-03-24T22:24:19.656Z,4.17
2019-03-24T22:26:50.501Z,4.07
2019-03-24T22:29:21.435Z,5.23
2019-03-24T22:31:52.443Z,5.57
2019-03-24T22:34:24.461Z,5.17
2019-03-24T22:36:57.175Z,4.93
2019-03-24T22:39:27.974Z,4.97
2019-03-24T22:41:58.806Z,5.03
2019-03-24T22:44:29.553Z,4.73
2019-03-24T22:47:00.383Z,4.87
2019-03-24T22:49:31.198Z,5.13
2019-03-24T22:52:07.128Z,4.40
2019-03-24T22:54:35.155Z,4.70
2019-03-24T22:57:06.584Z,4.40
2019-03-24T22:59:37.431Z,4.00
2019-03-24T23:02:08.371Z,4.67
2019-03-24T23:04:39.321Z,4.30
2019-03-24T23:07:10.407Z,4.23
2019-03-24T23:09:40.818Z,4.20
2019-03-24T23:12:11.826Z,4.17
2019-03-24T23:14:42.552Z,4.23
2019-03-24T23:17:13.392Z,4.03
2019-03-24T23:19:43.915Z,3.93
2019-03-24T23:22:14.753Z,4.27
2019-03-24T23:24:45.506Z,4.53
2019-03-24T23:27:16.397Z,3.57
2019-03-24T23:29:47.251Z,4.03
2019-03-24T23:32:18.104Z,4.03
2019-03-24T23:34:48.845Z,3.83
2019-03-24T23:37:19.685Z,4.00
2019-03-24T23:39:50.593Z,3.80
2019-03-24T23:42:21.399Z,3.93
2019-03-24T23:44:51.799Z,3.90
2019-03-24T23:47:22.703Z,4.17
2019-03-24T23:49:53.599Z,3.60
2019-03-24T23:52:24.731Z,4.17
2019-03-24T23:54:55.615Z,4.23
2019-03-24T23:57:26.131Z,4.10
2019-03-24T23:59:56.972Z,4.33
